sensor_id;sensor_type;location;lat;lon;timestamp;P1;durP1;ratioP1;P2;durP2;ratioP2
68214;SDS011;55036;52.138;5.236;2024-02-04T00:01:31;9.57;;;5.95;;
68214;SDS011;55036;52.138;5.236;2024-02-04T00:03:58;11.70;;;6.18;;
68214;SDS011;55036;52.138;5.236;2024-02-04T00:06:25;9.23;;;6.50;;
68214;SDS011;55036;52.138;5.236;2024-02-04T00:08:52;9.27;;;5.43;;
68214;SDS011;55036;52.138;5.236;2024-02-04T00:11:19;14.07;;;5.82;;
68214;SDS011;55036;52.138;5.236;2024-02-04T00:13:45;17.67;;;6.80;;
68214;SDS011;55036;52.138;5.236;2024-02-04T00:16:12;15.88;;;7.53;;
68214;SDS011;55036;52.138;5.236;2024-02-04T00:18:39;18.13;;;8.13;;
68214;SDS011;55036;52.138;5.236;2024-02-04T00:21:06;20.00;;;7.78;;
68214;SDS011;55036;52.138;5.236;2024-02-04T00:23:33;21.52;;;8.35;;
68214;SDS011;55036;52.138;5.236;2024-02-04T00:25:59;17.83;;;8.43;;
68214;SDS011;55036;52.138;5.236;2024-02-04T00:28:26;21.52;;;7.68;;
68214;SDS011;55036;52.138;5.236;2024-02-04T00:30:56;21.40;;;8.23;;
68214;SDS011;55036;52.138;5.236;2024-02-04T00:33:25;20.08;;;8.90;;
68214;SDS011;55036;52.138;5.236;2024-02-04T00:35:52;15.70;;;7.75;;
68214;SDS011;55036;52.138;5.236;2024-02-04T00:38:19;19.90;;;9.05;;
68214;SDS011;55036;52.138;5.236;2024-02-04T00:40:45;26.50;;;9.10;;
68214;SDS011;55036;52.138;5.236;2024-02-04T00:43:12;28.33;;;10.32;;
68214;SDS011;55036;52.138;5.236;2024-02-04T00:45:39;27.55;;;11.25;;
68214;SDS011;55036;52.138;5.236;2024-02-04T00:48:06;24.15;;;10.05;;
68214;SDS011;55036;52.138;5.236;2024-02-04T00:50:33;24.38;;;10.02;;
68214;SDS011;55036;52.138;5.236;2024-02-04T00:52:59;24.63;;;11.57;;
68214;SDS011;55036;52.138;5.236;2024-02-04T00:55:26;26.50;;;9.30;;
68214;SDS011;55036;52.138;5.236;2024-02-04T00:57:53;30.52;;;10.95;;
68214;SDS011;55036;52.138;5.236;2024-02-04T01:00:22;24.58;;;9.25;;
68214;SDS011;55036;52.138;5.236;2024-02-04T01:02:48;25.65;;;10.52;;
68214;SDS011;55036;52.138;5.236;2024-02-04T01:05:15;25.38;;;10.65;;
68214;SDS011;55036;52.138;5.236;2024-02-04T01:07:42;24.45;;;9.50;;
68214;SDS011;55036;52.138;5.236;2024-02-04T01:10:09;25.13;;;8.73;;
68214;SDS011;55036;52.138;5.236;2024-02-04T01:12:37;23.08;;;9.25;;
68214;SDS011;55036;52.138;5.236;2024-02-04T01:15:04;25.33;;;9.32;;
68214;SDS011;55036;52.138;5.236;2024-02-04T01:17:32;23.77;;;9.23;;
68214;SDS011;55036;52.138;5.236;2024-02-04T01:20:00;29.33;;;8.82;;
68214;SDS011;55036;52.138;5.236;2024-02-04T01:22:27;28.83;;;8.32;;
68214;SDS011;55036;52.138;5.236;2024-02-04T01:24:54;21.38;;;8.90;;
68214;SDS011;55036;52.138;5.236;2024-02-04T01:27:21;26.52;;;8.20;;
68214;SDS011;55036;52.138;5.236;2024-02-04T01:29:47;20.48;;;7.97;;
68214;SDS011;55036;52.138;5.236;2024-02-04T01:32:14;26.90;;;9.48;;
68214;SDS011;55036;52.138;5.236;2024-02-04T01:34:41;27.00;;;9.77;;
68214;SDS011;55036;52.138;5.236;2024-02-04T01:37:08;16.70;;;7.85;;
68214;SDS011;55036;52.138;5.236;2024-02-04T01:39:35;20.50;;;8.90;;
68214;SDS011;55036;52.138;5.236;2024-02-04T01:42:01;25.85;;;9.63;;
68214;SDS011;55036;52.138;5.236;2024-02-04T01:44:29;19.17;;;7.82;;
68214;SDS011;55036;52.138;5.236;2024-02-04T01:46:55;24.80;;;8.85;;
68214;SDS011;55036;52.138;5.236;2024-02-04T01:49:23;24.45;;;9.45;;
68214;SDS011;55036;52.138;5.236;2024-02-04T01:51:50;19.75;;;9.02;;
68214;SDS011;55036;52.138;5.236;2024-02-04T01:54:18;25.80;;;8.68;;
68214;SDS011;55036;52.138;5.236;2024-02-04T01:56:49;19.92;;;9.00;;
68214;SDS011;55036;52.138;5.236;2024-02-04T01:59:16;23.17;;;8.82;;
68214;SDS011;55036;52.138;5.236;2024-02-04T02:01:44;16.15;;;8.95;;
68214;SDS011;55036;52.138;5.236;2024-02-04T02:04:13;18.75;;;7.45;;
68214;SDS011;55036;52.138;5.236;2024-02-04T02:06:39;21.73;;;7.97;;
68214;SDS011;55036;52.138;5.236;2024-02-04T02:09:08;18.50;;;7.05;;
68214;SDS011;55036;52.138;5.236;2024-02-04T02:12:13;15.50;;;7.03;;
68214;SDS011;55036;52.138;5.236;2024-02-04T02:14:39;14.93;;;7.30;;
68214;SDS011;55036;52.138;5.236;2024-02-04T02:17:16;18.40;;;6.70;;
68214;SDS011;55036;52.138;5.236;2024-02-04T02:19:52;14.20;;;6.47;;
68214;SDS011;55036;52.138;5.236;2024-02-04T02:22:45;15.38;;;6.25;;
68214;SDS011;55036;52.138;5.236;2024-02-04T02:25:15;13.70;;;6.25;;
68214;SDS011;55036;52.138;5.236;2024-02-04T02:27:46;17.80;;;5.75;;
68214;SDS011;55036;52.138;5.236;2024-02-04T02:30:14;12.98;;;6.32;;
68214;SDS011;55036;52.138;5.236;2024-02-04T02:32:43;22.05;;;6.18;;
68214;SDS011;55036;52.138;5.236;2024-02-04T02:35:12;15.63;;;6.57;;
68214;SDS011;55036;52.138;5.236;2024-02-04T02:37:41;17.15;;;6.57;;
68214;SDS011;55036;52.138;5.236;2024-02-04T02:40:19;16.73;;;6.40;;
68214;SDS011;55036;52.138;5.236;2024-02-04T02:42:52;13.45;;;6.60;;
68214;SDS011;55036;52.138;5.236;2024-02-04T02:45:21;17.65;;;7.20;;
68214;SDS011;55036;52.138;5.236;2024-02-04T02:47:51;20.40;;;8.30;;
68214;SDS011;55036;52.138;5.236;2024-02-04T02:50:18;23.73;;;8.55;;
68214;SDS011;55036;52.138;5.236;2024-02-04T02:52:45;23.58;;;10.27;;
68214;SDS011;55036;52.138;5.236;2024-02-04T02:55:12;25.52;;;8.43;;
68214;SDS011;55036;52.138;5.236;2024-02-04T02:57:39;25.48;;;10.63;;
68214;SDS011;55036;52.138;5.236;2024-02-04T03:00:06;29.20;;;11.05;;
68214;SDS011;55036;52.138;5.236;2024-02-04T03:02:33;25.52;;;10.98;;
68214;SDS011;55036;52.138;5.236;2024-02-04T03:05:00;22.42;;;9.40;;
68214;SDS011;55036;52.138;5.236;2024-02-04T03:07:27;22.88;;;10.45;;
68214;SDS011;55036;52.138;5.236;2024-02-04T03:09:54;24.58;;;11.00;;
68214;SDS011;55036;52.138;5.236;2024-02-04T03:12:21;23.13;;;9.23;;
68214;SDS011;55036;52.138;5.236;2024-02-04T03:14:47;23.35;;;8.98;;
68214;SDS011;55036;52.138;5.236;2024-02-04T03:17:14;22.58;;;8.77;;
68214;SDS011;55036;52.138;5.236;2024-02-04T03:19:41;25.58;;;8.38;;
68214;SDS011;55036;52.138;5.236;2024-02-04T03:22:08;20.10;;;7.38;;
68214;SDS011;55036;52.138;5.236;2024-02-04T03:24:35;19.00;;;6.32;;
68214;SDS011;55036;52.138;5.236;2024-02-04T03:27:02;14.48;;;5.07;;
68214;SDS011;55036;52.138;5.236;2024-02-04T03:29:28;13.07;;;4.80;;
68214;SDS011;55036;52.138;5.236;2024-02-04T03:31:55;13.40;;;4.55;;
68214;SDS011;55036;52.138;5.236;2024-02-04T03:34:22;15.32;;;4.15;;
68214;SDS011;55036;52.138;5.236;2024-02-04T03:36:49;12.40;;;3.90;;
68214;SDS011;55036;52.138;5.236;2024-02-04T03:39:16;7.20;;;2.70;;
68214;SDS011;55036;52.138;5.236;2024-02-04T03:41:43;13.85;;;2.78;;
68214;SDS011;55036;52.138;5.236;2024-02-04T03:44:09;11.48;;;2.90;;
68214;SDS011;55036;52.138;5.236;2024-02-04T03:46:36;15.07;;;3.10;;
68214;SDS011;55036;52.138;5.236;2024-02-04T03:49:06;6.97;;;2.38;;
68214;SDS011;55036;52.138;5.236;2024-02-04T03:51:34;11.48;;;2.63;;
68214;SDS011;55036;52.138;5.236;2024-02-04T03:54:01;10.10;;;2.42;;
68214;SDS011;55036;52.138;5.236;2024-02-04T03:56:28;10.07;;;3.00;;
68214;SDS011;55036;52.138;5.236;2024-02-04T03:58:55;11.93;;;3.20;;
68214;SDS011;55036;52.138;5.236;2024-02-04T04:01:21;10.98;;;3.03;;
68214;SDS011;55036;52.138;5.236;2024-02-04T04:03:48;10.82;;;3.38;;
68214;SDS011;55036;52.138;5.236;2024-02-04T04:06:15;10.20;;;3.00;;
68214;SDS011;55036;52.138;5.236;2024-02-04T04:08:42;11.55;;;3.65;;
68214;SDS011;55036;52.138;5.236;2024-02-04T04:11:10;12.90;;;3.60;;
68214;SDS011;55036;52.138;5.236;2024-02-04T04:13:37;12.75;;;4.40;;
68214;SDS011;55036;52.138;5.236;2024-02-04T04:16:05;10.77;;;3.53;;
68214;SDS011;55036;52.138;5.236;2024-02-04T04:18:32;13.60;;;4.20;;
68214;SDS011;55036;52.138;5.236;2024-02-04T04:20:59;15.18;;;4.65;;
68214;SDS011;55036;52.138;5.236;2024-02-04T04:23:26;9.50;;;4.15;;
68214;SDS011;55036;52.138;5.236;2024-02-04T04:25:53;12.38;;;4.03;;
68214;SDS011;55036;52.138;5.236;2024-02-04T04:28:19;14.05;;;4.28;;
68214;SDS011;55036;52.138;5.236;2024-02-04T04:30:46;8.02;;;3.30;;
68214;SDS011;55036;52.138;5.236;2024-02-04T04:33:13;13.70;;;3.67;;
68214;SDS011;55036;52.138;5.236;2024-02-04T04:35:40;11.55;;;4.55;;
68214;SDS011;55036;52.138;5.236;2024-02-04T04:38:07;11.10;;;3.72;;
68214;SDS011;55036;52.138;5.236;2024-02-04T04:40:33;14.90;;;3.05;;
68214;SDS011;55036;52.138;5.236;2024-02-04T04:43:00;17.15;;;3.45;;
68214;SDS011;55036;52.138;5.236;2024-02-04T04:45:27;11.82;;;2.78;;
68214;SDS011;55036;52.138;5.236;2024-02-04T04:47:53;18.67;;;3.03;;
68214;SDS011;55036;52.138;5.236;2024-02-04T04:50:20;9.85;;;3.13;;
68214;SDS011;55036;52.138;5.236;2024-02-04T04:52:48;8.57;;;2.42;;
68214;SDS011;55036;52.138;5.236;2024-02-04T04:55:14;7.47;;;3.20;;
68214;SDS011;55036;52.138;5.236;2024-02-04T04:57:41;15.02;;;3.47;;
68214;SDS011;55036;52.138;5.236;2024-02-04T05:00:08;14.75;;;3.13;;
68214;SDS011;55036;52.138;5.236;2024-02-04T05:02:36;13.45;;;3.22;;
68214;SDS011;55036;52.138;5.236;2024-02-04T05:05:03;17.60;;;3.85;;
68214;SDS011;55036;52.138;5.236;2024-02-04T05:07:30;13.27;;;4.13;;
68214;SDS011;55036;52.138;5.236;2024-02-04T05:09:57;14.02;;;4.53;;
68214;SDS011;55036;52.138;5.236;2024-02-04T05:12:24;10.85;;;4.30;;
68214;SDS011;55036;52.138;5.236;2024-02-04T05:14:51;12.90;;;5.32;;
68214;SDS011;55036;52.138;5.236;2024-02-04T05:17:18;16.73;;;4.40;;
68214;SDS011;55036;52.138;5.236;2024-02-04T05:19:44;13.45;;;4.85;;
68214;SDS011;55036;52.138;5.236;2024-02-04T05:22:11;13.52;;;5.75;;
68214;SDS011;55036;52.138;5.236;2024-02-04T05:24:38;15.85;;;5.57;;
68214;SDS011;55036;52.138;5.236;2024-02-04T05:27:05;14.63;;;6.15;;
68214;SDS011;55036;52.138;5.236;2024-02-04T05:29:31;20.48;;;6.68;;
68214;SDS011;55036;52.138;5.236;2024-02-04T05:31:58;13.18;;;5.65;;
68214;SDS011;55036;52.138;5.236;2024-02-04T05:34:25;14.00;;;6.20;;
68214;SDS011;55036;52.138;5.236;2024-02-04T05:36:52;17.85;;;5.38;;
68214;SDS011;55036;52.138;5.236;2024-02-04T05:39:19;20.35;;;5.40;;
68214;SDS011;55036;52.138;5.236;2024-02-04T05:41:46;12.43;;;5.15;;
68214;SDS011;55036;52.138;5.236;2024-02-04T05:44:13;9.52;;;4.82;;
68214;SDS011;55036;52.138;5.236;2024-02-04T05:46:39;12.82;;;4.43;;
68214;SDS011;55036;52.138;5.236;2024-02-04T05:49:06;13.80;;;4.38;;
68214;SDS011;55036;52.138;5.236;2024-02-04T05:51:37;13.70;;;4.13;;
68214;SDS011;55036;52.138;5.236;2024-02-04T05:54:06;8.23;;;3.67;;
68214;SDS011;55036;52.138;5.236;2024-02-04T05:56:34;12.63;;;4.30;;
68214;SDS011;55036;52.138;5.236;2024-02-04T05:59:01;13.82;;;5.20;;
68214;SDS011;55036;52.138;5.236;2024-02-04T06:01:27;14.73;;;4.97;;
68214;SDS011;55036;52.138;5.236;2024-02-04T06:03:54;15.38;;;6.20;;
68214;SDS011;55036;52.138;5.236;2024-02-04T06:06:21;15.13;;;6.22;;
68214;SDS011;55036;52.138;5.236;2024-02-04T06:08:48;13.10;;;5.18;;
68214;SDS011;55036;52.138;5.236;2024-02-04T06:11:15;15.57;;;5.88;;
68214;SDS011;55036;52.138;5.236;2024-02-04T06:13:42;15.20;;;6.30;;
68214;SDS011;55036;52.138;5.236;2024-02-04T06:16:11;22.20;;;7.03;;
68214;SDS011;55036;52.138;5.236;2024-02-04T06:18:40;12.20;;;6.93;;
68214;SDS011;55036;52.138;5.236;2024-02-04T06:21:07;14.43;;;6.60;;
68214;SDS011;55036;52.138;5.236;2024-02-04T06:23:34;18.88;;;7.43;;
68214;SDS011;55036;52.138;5.236;2024-02-04T06:26:01;19.80;;;7.43;;
68214;SDS011;55036;52.138;5.236;2024-02-04T06:28:28;18.00;;;8.38;;
68214;SDS011;55036;52.138;5.236;2024-02-04T06:30:55;20.95;;;8.73;;
68214;SDS011;55036;52.138;5.236;2024-02-04T06:33:22;20.50;;;8.98;;
68214;SDS011;55036;52.138;5.236;2024-02-04T06:35:51;21.70;;;9.60;;
68214;SDS011;55036;52.138;5.236;2024-02-04T06:38:18;18.33;;;9.48;;
68214;SDS011;55036;52.138;5.236;2024-02-04T06:40:45;26.58;;;10.25;;
68214;SDS011;55036;52.138;5.236;2024-02-04T06:43:11;27.63;;;11.20;;
68214;SDS011;55036;52.138;5.236;2024-02-04T06:45:38;16.25;;;8.75;;
68214;SDS011;55036;52.138;5.236;2024-02-04T06:48:05;20.67;;;9.93;;
68214;SDS011;55036;52.138;5.236;2024-02-04T06:50:33;17.98;;;11.27;;
68214;SDS011;55036;52.138;5.236;2024-02-04T06:53:00;21.52;;;10.82;;
68214;SDS011;55036;52.138;5.236;2024-02-04T06:55:27;18.85;;;9.73;;
68214;SDS011;55036;52.138;5.236;2024-02-04T06:57:54;24.17;;;10.27;;
68214;SDS011;55036;52.138;5.236;2024-02-04T07:00:21;20.00;;;10.00;;
68214;SDS011;55036;52.138;5.236;2024-02-04T07:02:48;17.27;;;9.75;;
68214;SDS011;55036;52.138;5.236;2024-02-04T07:05:15;21.55;;;10.32;;
68214;SDS011;55036;52.138;5.236;2024-02-04T07:07:42;18.27;;;10.10;;
68214;SDS011;55036;52.138;5.236;2024-02-04T07:10:09;20.75;;;10.60;;
68214;SDS011;55036;52.138;5.236;2024-02-04T07:12:36;26.42;;;9.95;;
68214;SDS011;55036;52.138;5.236;2024-02-04T07:15:03;17.60;;;9.05;;
68214;SDS011;55036;52.138;5.236;2024-02-04T07:17:30;19.27;;;9.55;;
68214;SDS011;55036;52.138;5.236;2024-02-04T07:19:57;20.48;;;9.32;;
68214;SDS011;55036;52.138;5.236;2024-02-04T07:22:24;20.65;;;8.43;;
68214;SDS011;55036;52.138;5.236;2024-02-04T07:24:51;19.35;;;8.75;;
68214;SDS011;55036;52.138;5.236;2024-02-04T07:27:18;25.25;;;8.73;;
68214;SDS011;55036;52.138;5.236;2024-02-04T07:29:45;14.38;;;7.80;;
68214;SDS011;55036;52.138;5.236;2024-02-04T07:32:13;18.92;;;8.23;;
68214;SDS011;55036;52.138;5.236;2024-02-04T07:34:41;18.73;;;8.57;;
68214;SDS011;55036;52.138;5.236;2024-02-04T07:37:08;15.38;;;8.05;;
68214;SDS011;55036;52.138;5.236;2024-02-04T07:39:35;17.33;;;8.02;;
68214;SDS011;55036;52.138;5.236;2024-02-04T07:42:02;20.13;;;8.27;;
68214;SDS011;55036;52.138;5.236;2024-02-04T07:44:29;12.15;;;7.43;;
68214;SDS011;55036;52.138;5.236;2024-02-04T07:46:56;18.75;;;8.23;;
68214;SDS011;55036;52.138;5.236;2024-02-04T07:49:23;11.10;;;6.47;;
68214;SDS011;55036;52.138;5.236;2024-02-04T07:51:50;12.55;;;6.47;;
68214;SDS011;55036;52.138;5.236;2024-02-04T07:54:17;10.80;;;5.13;;
68214;SDS011;55036;52.138;5.236;2024-02-04T07:56:44;12.48;;;4.85;;
68214;SDS011;55036;52.138;5.236;2024-02-04T07:59:10;11.23;;;4.28;;
68214;SDS011;55036;52.138;5.236;2024-02-04T08:01:37;11.55;;;3.50;;
68214;SDS011;55036;52.138;5.236;2024-02-04T08:04:04;6.35;;;3.38;;
68214;SDS011;55036;52.138;5.236;2024-02-04T08:06:34;5.57;;;3.20;;
68214;SDS011;55036;52.138;5.236;2024-02-04T08:09:01;6.32;;;3.67;;
68214;SDS011;55036;52.138;5.236;2024-02-04T08:11:28;7.50;;;3.33;;
68214;SDS011;55036;52.138;5.236;2024-02-04T08:13:55;10.38;;;3.47;;
68214;SDS011;55036;52.138;5.236;2024-02-04T08:16:22;8.07;;;3.40;;
68214;SDS011;55036;52.138;5.236;2024-02-04T08:18:49;5.30;;;3.10;;
68214;SDS011;55036;52.138;5.236;2024-02-04T08:21:15;8.30;;;2.80;;
68214;SDS011;55036;52.138;5.236;2024-02-04T08:23:42;10.43;;;3.30;;
68214;SDS011;55036;52.138;5.236;2024-02-04T08:26:10;7.55;;;2.72;;
68214;SDS011;55036;52.138;5.236;2024-02-04T08:28:37;5.32;;;2.40;;
68214;SDS011;55036;52.138;5.236;2024-02-04T08:31:04;7.80;;;3.03;;
68214;SDS011;55036;52.138;5.236;2024-02-04T08:33:31;4.53;;;2.28;;
68214;SDS011;55036;52.138;5.236;2024-02-04T08:35:58;9.48;;;3.45;;
68214;SDS011;55036;52.138;5.236;2024-02-04T08:38:24;7.25;;;3.88;;
68214;SDS011;55036;52.138;5.236;2024-02-04T08:40:51;9.13;;;3.60;;
68214;SDS011;55036;52.138;5.236;2024-02-04T08:43:18;9.57;;;3.63;;
68214;SDS011;55036;52.138;5.236;2024-02-04T08:45:45;9.05;;;3.75;;
68214;SDS011;55036;52.138;5.236;2024-02-04T08:48:11;8.68;;;4.00;;
68214;SDS011;55036;52.138;5.236;2024-02-04T08:50:38;12.32;;;4.45;;
68214;SDS011;55036;52.138;5.236;2024-02-04T08:53:05;11.60;;;4.47;;
68214;SDS011;55036;52.138;5.236;2024-02-04T08:55:32;10.02;;;4.45;;
68214;SDS011;55036;52.138;5.236;2024-02-04T08:57:59;8.30;;;4.55;;
68214;SDS011;55036;52.138;5.236;2024-02-04T09:00:26;7.07;;;4.20;;
68214;SDS011;55036;52.138;5.236;2024-02-04T09:02:53;11.35;;;4.47;;
68214;SDS011;55036;52.138;5.236;2024-02-04T09:05:20;11.10;;;4.28;;
68214;SDS011;55036;52.138;5.236;2024-02-04T09:07:46;11.10;;;4.68;;
68214;SDS011;55036;52.138;5.236;2024-02-04T09:10:14;9.68;;;3.90;;
68214;SDS011;55036;52.138;5.236;2024-02-04T09:12:41;8.80;;;4.07;;
68214;SDS011;55036;52.138;5.236;2024-02-04T09:15:07;5.93;;;3.17;;
68214;SDS011;55036;52.138;5.236;2024-02-04T09:17:34;10.88;;;3.40;;
68214;SDS011;55036;52.138;5.236;2024-02-04T09:20:01;6.57;;;2.90;;
68214;SDS011;55036;52.138;5.236;2024-02-04T09:22:29;5.82;;;2.38;;
68214;SDS011;55036;52.138;5.236;2024-02-04T09:24:55;6.20;;;2.83;;
68214;SDS011;55036;52.138;5.236;2024-02-04T09:27:22;8.13;;;2.22;;
68214;SDS011;55036;52.138;5.236;2024-02-04T09:29:49;5.75;;;2.25;;
68214;SDS011;55036;52.138;5.236;2024-02-04T09:32:16;9.95;;;2.38;;
68214;SDS011;55036;52.138;5.236;2024-02-04T09:34:44;4.97;;;2.13;;
68214;SDS011;55036;52.138;5.236;2024-02-04T09:37:12;4.72;;;2.00;;
68214;SDS011;55036;52.138;5.236;2024-02-04T09:39:39;5.32;;;1.90;;
68214;SDS011;55036;52.138;5.236;2024-02-04T09:42:06;5.25;;;2.78;;
68214;SDS011;55036;52.138;5.236;2024-02-04T09:44:33;8.25;;;1.70;;
68214;SDS011;55036;52.138;5.236;2024-02-04T09:47:02;5.25;;;2.45;;
68214;SDS011;55036;52.138;5.236;2024-02-04T09:49:29;8.30;;;1.67;;
68214;SDS011;55036;52.138;5.236;2024-02-04T09:51:59;2.72;;;1.33;;
68214;SDS011;55036;52.138;5.236;2024-02-04T09:54:31;5.38;;;2.00;;
68214;SDS011;55036;52.138;5.236;2024-02-04T09:57:00;4.28;;;1.58;;
68214;SDS011;55036;52.138;5.236;2024-02-04T09:59:27;4.13;;;1.33;;
68214;SDS011;55036;52.138;5.236;2024-02-04T10:01:54;5.38;;;1.38;;
68214;SDS011;55036;52.138;5.236;2024-02-04T10:04:22;4.70;;;1.75;;
68214;SDS011;55036;52.138;5.236;2024-02-04T10:06:49;5.45;;;1.35;;
68214;SDS011;55036;52.138;5.236;2024-02-04T10:09:16;2.75;;;1.42;;
68214;SDS011;55036;52.138;5.236;2024-02-04T10:11:43;3.63;;;1.27;;
68214;SDS011;55036;52.138;5.236;2024-02-04T10:14:09;2.20;;;1.00;;
68214;SDS011;55036;52.138;5.236;2024-02-04T10:16:36;4.82;;;1.13;;
68214;SDS011;55036;52.138;5.236;2024-02-04T10:19:04;1.83;;;0.93;;
68214;SDS011;55036;52.138;5.236;2024-02-04T10:21:31;5.43;;;1.23;;
68214;SDS011;55036;52.138;5.236;2024-02-04T10:23:58;4.93;;;1.10;;
68214;SDS011;55036;52.138;5.236;2024-02-04T10:26:28;3.13;;;1.38;;
68214;SDS011;55036;52.138;5.236;2024-02-04T10:28:57;3.15;;;0.88;;
68214;SDS011;55036;52.138;5.236;2024-02-04T10:31:25;6.78;;;1.35;;
68214;SDS011;55036;52.138;5.236;2024-02-04T10:33:52;2.95;;;1.10;;
68214;SDS011;55036;52.138;5.236;2024-02-04T10:36:20;3.17;;;0.88;;
68214;SDS011;55036;52.138;5.236;2024-02-04T10:38:47;3.17;;;0.82;;
68214;SDS011;55036;52.138;5.236;2024-02-04T10:41:15;3.78;;;0.75;;
68214;SDS011;55036;52.138;5.236;2024-02-04T10:43:43;3.00;;;0.90;;
68214;SDS011;55036;52.138;5.236;2024-02-04T10:46:13;2.78;;;0.85;;
68214;SDS011;55036;52.138;5.236;2024-02-04T10:48:45;4.28;;;1.00;;
68214;SDS011;55036;52.138;5.236;2024-02-04T10:51:22;4.15;;;0.90;;
68214;SDS011;55036;52.138;5.236;2024-02-04T10:53:53;1.58;;;0.82;;
68214;SDS011;55036;52.138;5.236;2024-02-04T10:56:25;2.22;;;0.77;;
68214;SDS011;55036;52.138;5.236;2024-02-04T10:58:57;1.10;;;0.60;;
68214;SDS011;55036;52.138;5.236;2024-02-04T11:01:26;5.07;;;1.17;;
68214;SDS011;55036;52.138;5.236;2024-02-04T11:03:54;0.63;;;0.63;;
68214;SDS011;55036;52.138;5.236;2024-02-04T11:06:22;4.03;;;0.85;;
68214;SDS011;55036;52.138;5.236;2024-02-04T11:08:50;4.50;;;0.90;;
68214;SDS011;55036;52.138;5.236;2024-02-04T11:11:21;1.80;;;1.00;;
68214;SDS011;55036;52.138;5.236;2024-02-04T11:13:50;2.05;;;1.00;;
68214;SDS011;55036;52.138;5.236;2024-02-04T11:19:15;1.88;;;1.25;;
68214;SDS011;55036;52.138;5.236;2024-02-04T11:22:29;5.18;;;1.60;;
68214;SDS011;55036;52.138;5.236;2024-02-04T11:27:47;5.43;;;2.13;;
68214;SDS011;55036;52.138;5.236;2024-02-04T11:30:14;8.13;;;2.33;;
68214;SDS011;55036;52.138;5.236;2024-02-04T11:32:42;3.15;;;2.03;;
68214;SDS011;55036;52.138;5.236;2024-02-04T11:35:09;7.25;;;2.10;;
68214;SDS011;55036;52.138;5.236;2024-02-04T11:37:37;5.63;;;1.98;;
68214;SDS011;55036;52.138;5.236;2024-02-04T11:40:05;10.65;;;2.33;;
68214;SDS011;55036;52.138;5.236;2024-02-04T11:42:32;8.95;;;2.30;;
68214;SDS011;55036;52.138;5.236;2024-02-04T11:45:08;6.35;;;2.10;;
68214;SDS011;55036;52.138;5.236;2024-02-04T11:47:37;8.43;;;2.00;;
68214;SDS011;55036;52.138;5.236;2024-02-04T11:50:05;5.88;;;2.50;;
68214;SDS011;55036;52.138;5.236;2024-02-04T11:52:33;4.18;;;1.50;;
68214;SDS011;55036;52.138;5.236;2024-02-04T11:55:00;8.07;;;2.30;;
68214;SDS011;55036;52.138;5.236;2024-02-04T11:57:27;9.55;;;1.90;;
68214;SDS011;55036;52.138;5.236;2024-02-04T11:59:55;9.25;;;2.38;;
68214;SDS011;55036;52.138;5.236;2024-02-04T12:02:22;8.55;;;1.80;;
68214;SDS011;55036;52.138;5.236;2024-02-04T12:04:49;6.05;;;1.92;;
68214;SDS011;55036;52.138;5.236;2024-02-04T12:07:17;9.73;;;2.33;;
68214;SDS011;55036;52.138;5.236;2024-02-04T12:09:44;7.00;;;1.70;;
68214;SDS011;55036;52.138;5.236;2024-02-04T12:12:11;8.32;;;2.00;;
68214;SDS011;55036;52.138;5.236;2024-02-04T12:14:38;8.00;;;1.92;;
68214;SDS011;55036;52.138;5.236;2024-02-04T12:17:09;11.48;;;2.40;;
68214;SDS011;55036;52.138;5.236;2024-02-04T12:19:37;7.60;;;1.88;;
68214;SDS011;55036;52.138;5.236;2024-02-04T12:22:10;6.82;;;1.67;;
68214;SDS011;55036;52.138;5.236;2024-02-04T12:24:38;5.10;;;1.65;;
68214;SDS011;55036;52.138;5.236;2024-02-04T12:27:05;8.73;;;1.95;;
68214;SDS011;55036;52.138;5.236;2024-02-04T12:29:33;9.43;;;1.98;;
68214;SDS011;55036;52.138;5.236;2024-02-04T12:32:00;10.05;;;1.58;;
68214;SDS011;55036;52.138;5.236;2024-02-04T12:34:29;6.45;;;1.70;;
68214;SDS011;55036;52.138;5.236;2024-02-04T12:36:59;7.60;;;1.77;;
68214;SDS011;55036;52.138;5.236;2024-02-04T12:39:27;4.97;;;1.90;;
68214;SDS011;55036;52.138;5.236;2024-02-04T12:41:55;5.22;;;1.90;;
68214;SDS011;55036;52.138;5.236;2024-02-04T12:44:22;10.85;;;1.63;;
68214;SDS011;55036;52.138;5.236;2024-02-04T12:46:52;7.70;;;1.48;;
68214;SDS011;55036;52.138;5.236;2024-02-04T12:49:19;6.60;;;1.17;;
68214;SDS011;55036;52.138;5.236;2024-02-04T12:51:50;5.53;;;1.48;;
68214;SDS011;55036;52.138;5.236;2024-02-04T12:54:22;5.10;;;1.65;;
68214;SDS011;55036;52.138;5.236;2024-02-04T12:56:49;5.45;;;1.13;;
68214;SDS011;55036;52.138;5.236;2024-02-04T12:59:26;6.45;;;1.88;;
68214;SDS011;55036;52.138;5.236;2024-02-04T13:01:55;5.95;;;1.50;;
68214;SDS011;55036;52.138;5.236;2024-02-04T13:04:32;10.40;;;1.60;;
68214;SDS011;55036;52.138;5.236;2024-02-04T13:07:12;3.65;;;1.58;;
68214;SDS011;55036;52.138;5.236;2024-02-04T13:09:40;3.50;;;1.40;;
68214;SDS011;55036;52.138;5.236;2024-02-04T13:12:08;5.80;;;1.35;;
68214;SDS011;55036;52.138;5.236;2024-02-04T13:14:36;9.25;;;1.95;;
68214;SDS011;55036;52.138;5.236;2024-02-04T13:17:07;8.55;;;1.27;;
68214;SDS011;55036;52.138;5.236;2024-02-04T13:19:34;6.93;;;1.60;;
68214;SDS011;55036;52.138;5.236;2024-02-04T13:22:03;4.97;;;2.08;;
68214;SDS011;55036;52.138;5.236;2024-02-04T13:24:36;5.53;;;1.58;;
68214;SDS011;55036;52.138;5.236;2024-02-04T13:27:03;4.18;;;1.38;;
68214;SDS011;55036;52.138;5.236;2024-02-04T13:29:32;8.48;;;1.92;;
68214;SDS011;55036;52.138;5.236;2024-02-04T13:32:00;5.85;;;1.38;;
68214;SDS011;55036;52.138;5.236;2024-02-04T13:34:27;4.40;;;1.55;;
68214;SDS011;55036;52.138;5.236;2024-02-04T13:36:54;6.72;;;1.50;;
68214;SDS011;55036;52.138;5.236;2024-02-04T13:39:20;3.42;;;1.30;;
68214;SDS011;55036;52.138;5.236;2024-02-04T13:41:47;5.57;;;1.23;;
68214;SDS011;55036;52.138;5.236;2024-02-04T13:44:14;2.72;;;1.20;;
68214;SDS011;55036;52.138;5.236;2024-02-04T13:46:41;6.13;;;1.77;;
68214;SDS011;55036;52.138;5.236;2024-02-04T13:49:09;5.88;;;1.05;;
68214;SDS011;55036;52.138;5.236;2024-02-04T13:51:39;7.32;;;1.40;;
68214;SDS011;55036;52.138;5.236;2024-02-04T13:54:10;8.30;;;1.70;;
68214;SDS011;55036;52.138;5.236;2024-02-04T13:56:43;11.45;;;2.75;;
68214;SDS011;55036;52.138;5.236;2024-02-04T13:59:10;8.55;;;2.00;;
68214;SDS011;55036;52.138;5.236;2024-02-04T14:01:37;10.25;;;2.85;;
68214;SDS011;55036;52.138;5.236;2024-02-04T14:04:04;10.75;;;4.63;;
68214;SDS011;55036;52.138;5.236;2024-02-04T14:06:31;9.68;;;2.85;;
68214;SDS011;55036;52.138;5.236;2024-02-04T14:08:57;9.63;;;2.70;;
68214;SDS011;55036;52.138;5.236;2024-02-04T14:11:24;9.35;;;2.95;;
68214;SDS011;55036;52.138;5.236;2024-02-04T14:13:51;9.00;;;2.50;;
68214;SDS011;55036;52.138;5.236;2024-02-04T14:16:18;9.30;;;2.80;;
68214;SDS011;55036;52.138;5.236;2024-02-04T14:18:44;9.45;;;2.90;;
68214;SDS011;55036;52.138;5.236;2024-02-04T14:21:13;10.35;;;2.58;;
68214;SDS011;55036;52.138;5.236;2024-02-04T14:23:42;13.38;;;2.80;;
68214;SDS011;55036;52.138;5.236;2024-02-04T14:26:19;8.40;;;2.55;;
68214;SDS011;55036;52.138;5.236;2024-02-04T14:28:46;8.40;;;2.47;;
68214;SDS011;55036;52.138;5.236;2024-02-04T14:31:14;9.27;;;3.80;;
68214;SDS011;55036;52.138;5.236;2024-02-04T14:33:41;10.23;;;2.60;;
68214;SDS011;55036;52.138;5.236;2024-02-04T14:36:08;9.10;;;2.97;;
68214;SDS011;55036;52.138;5.236;2024-02-04T14:38:39;13.10;;;2.47;;
68214;SDS011;55036;52.138;5.236;2024-02-04T14:41:05;14.25;;;2.30;;
68214;SDS011;55036;52.138;5.236;2024-02-04T14:43:33;9.43;;;2.05;;
68214;SDS011;55036;52.138;5.236;2024-02-04T14:46:00;8.23;;;2.80;;
68214;SDS011;55036;52.138;5.236;2024-02-04T14:48:27;11.35;;;2.40;;